Aérodrome :
LOGIN :

S'inscrire | Disclaimer

   EN    FR    IT 

 










Légende :    VFR   VFR Marginal   IFR   IFR Intensif   IFR Très Intensif
Visi : 
Plafond : 
>= 8 km
>= 3000ft
5 à 8 km
1000 à 3000 ft
1500m à 5 km
500 à 1000 ft
800 à 1500m
200 à 500 ft
< 800m
< 200 ft
Symboles :   Orages  Brouillard  Fortes neiges  Fortes précipitations  Vent > 20 kt
SIGMETs :   Divers  Orages  Givrage  Turbulence  Onde Orograph.  Cendres Volcan.







- Altitude de l'aérodrome : 306 ft
- Code IATA : EMA
- Voir les cartes d'approche


EGNX - Nottingham East Midlands

DERNIER METAR :
  • 252320Z 19010KT CAVOK 08/05 Q1004

METARs EXPIRÉS :
  • 252250Z 19010KT CAVOK 08/05 Q1004
  • 252220Z 19009KT CAVOK 09/05 Q1003
  • 252150Z 18009KT 150V230 CAVOK 09/05 Q1003
  • 252120Z 17006KT CAVOK 08/06 Q1002
  • 252050Z 18006KT 130V220 CAVOK 08/06 Q1002

TAF TAF EGNX
Valide du 26 à 00h jusqu'au 27 à 00h UTC


252304Z 2600/2624 17006KT 9999 FEW030
PROB30 2602/2608 8000 BKN008
BECMG 2608/2611 21016KT
PROB40
TEMPO 2612/2617 7000 SHRA BKN014
TEMPO 2620/2624 7000 RA BKN012
BECMG 2621/2624 20017G27KT
ATIS : +44 1332 852 852 (ext 3201)
Pas de NOTAMs connus pour ce terrain.



MET'MAP, la Météo Aéronautique d'un coup d'oeil ! - Copyright ORBIFLY Décembre 2007 - Disclaimer

ORBIFLY MET'MAP TEAM :

Programmation & Développement : Alexandra Zaïnal
Conception & Développement : Baudouin d'Aumeries
Co-Programmation & Développement : Marc-Olivier Méhu
Soutien technique & logistique : Manuel Goepfert

Contact : metmap@orbifly.com




SOURCES & CREDITS :

   NOAA